sensor_id;sensor_type;location;lat;lon;timestamp;pressure;altitude;pressure_sealevel;temperature;humidity
40171;BME280;37650;52.790;18.268;2023-06-14T00:01:53;100818.05;;;14.16;98.04
40171;BME280;37650;52.790;18.268;2023-06-14T00:05:16;100808.42;;;14.11;98.94
40171;BME280;37650;52.790;18.268;2023-06-14T00:08:37;100807.80;;;14.09;99.89
40171;BME280;37650;52.790;18.268;2023-06-14T00:11:58;100801.89;;;14.07;100.00
40171;BME280;37650;52.790;18.268;2023-06-14T00:15:19;100796.36;;;14.00;100.00
40171;BME280;37650;52.790;18.268;2023-06-14T00:18:40;100800.92;;;14.01;100.00
40171;BME280;37650;52.790;18.268;2023-06-14T00:22:02;100800.35;;;13.98;100.00
40171;BME280;37650;52.790;18.268;2023-06-14T00:25:24;100797.22;;;13.97;100.00
40171;BME280;37650;52.790;18.268;2023-06-14T00:28:48;100788.23;;;13.97;100.00
40171;BME280;37650;52.790;18.268;2023-06-14T00:32:09;100777.95;;;13.99;100.00
40171;BME280;37650;52.790;18.268;2023-06-14T00:35:32;100777.90;;;13.99;100.00
40171;BME280;37650;52.790;18.268;2023-06-14T00:38:53;100771.48;;;13.97;100.00
40171;BME280;37650;52.790;18.268;2023-06-14T00:42:27;100773.84;;;13.95;100.00
40171;BME280;37650;52.790;18.268;2023-06-14T00:45:48;100766.21;;;13.92;100.00
40171;BME280;37650;52.790;18.268;2023-06-14T00:49:10;100764.65;;;13.92;100.00
40171;BME280;37650;52.790;18.268;2023-06-14T00:52:33;100761.11;;;13.92;100.00
40171;BME280;37650;52.790;18.268;2023-06-14T00:55:55;100759.19;;;13.92;100.00
40171;BME280;37650;52.790;18.268;2023-06-14T00:59:17;100754.73;;;13.88;100.00
40171;BME280;37650;52.790;18.268;2023-06-14T01:02:38;100748.98;;;13.91;100.00
40171;BME280;37650;52.790;18.268;2023-06-14T01:06:15;100745.70;;;13.85;100.00
40171;BME280;37650;52.790;18.268;2023-06-14T01:13:25;100745.51;;;13.86;100.00
40171;BME280;37650;52.790;18.268;2023-06-14T01:16:48;100745.14;;;13.86;100.00
40171;BME280;37650;52.790;18.268;2023-06-14T01:20:16;100741.46;;;13.85;100.00
40171;BME280;37650;52.790;18.268;2023-06-14T01:23:38;100739.46;;;13.87;100.00
40171;BME280;37650;52.790;18.268;2023-06-14T01:26:59;100733.34;;;13.86;100.00
40171;BME280;37650;52.790;18.268;2023-06-14T01:30:23;100730.62;;;13.83;100.00
40171;BME280;37650;52.790;18.268;2023-06-14T01:33:46;100732.73;;;13.84;100.00
40171;BME280;37650;52.790;18.268;2023-06-14T01:37:08;100743.46;;;13.84;100.00
40171;BME280;37650;52.790;18.268;2023-06-14T01:40:30;100741.61;;;13.86;100.00
40171;BME280;37650;52.790;18.268;2023-06-14T01:43:52;100737.14;;;13.88;100.00
40171;BME280;37650;52.790;18.268;2023-06-14T01:47:14;100737.03;;;13.86;100.00
40171;BME280;37650;52.790;18.268;2023-06-14T01:50:36;100741.46;;;13.82;100.00
40171;BME280;37650;52.790;18.268;2023-06-14T01:53:58;100738.28;;;13.82;100.00
40171;BME280;37650;52.790;18.268;2023-06-14T01:57:22;100736.14;;;13.83;100.00
40171;BME280;37650;52.790;18.268;2023-06-14T02:00:43;100737.31;;;13.84;100.00
40171;BME280;37650;52.790;18.268;2023-06-14T02:04:05;100737.45;;;13.81;100.00
40171;BME280;37650;52.790;18.268;2023-06-14T02:07:27;100741.06;;;13.79;100.00
40171;BME280;37650;52.790;18.268;2023-06-14T02:10:48;100738.66;;;13.82;100.00
40171;BME280;37650;52.790;18.268;2023-06-14T02:14:09;100731.98;;;13.81;100.00
40171;BME280;37650;52.790;18.268;2023-06-14T02:17:33;100730.92;;;13.81;100.00
40171;BME280;37650;52.790;18.268;2023-06-14T02:20:54;100728.95;;;13.81;100.00
40171;BME280;37650;52.790;18.268;2023-06-14T02:24:16;100723.13;;;13.82;100.00
40171;BME280;37650;52.790;18.268;2023-06-14T02:27:37;100722.94;;;13.82;100.00
40171;BME280;37650;52.790;18.268;2023-06-14T02:30:58;100719.28;;;13.81;100.00
40171;BME280;37650;52.790;18.268;2023-06-14T02:34:20;100714.48;;;13.78;100.00
40171;BME280;37650;52.790;18.268;2023-06-14T02:37:42;100708.27;;;13.75;100.00
40171;BME280;37650;52.790;18.268;2023-06-14T02:41:03;100707.71;;;13.75;100.00
40171;BME280;37650;52.790;18.268;2023-06-14T02:44:25;100706.58;;;13.73;100.00
40171;BME280;37650;52.790;18.268;2023-06-14T02:47:48;100713.08;;;13.78;100.00
40171;BME280;37650;52.790;18.268;2023-06-14T02:51:11;100710.63;;;13.85;100.00
40171;BME280;37650;52.790;18.268;2023-06-14T02:54:33;100713.65;;;13.89;100.00
40171;BME280;37650;52.790;18.268;2023-06-14T02:57:55;100711.25;;;13.91;100.00
40171;BME280;37650;52.790;18.268;2023-06-14T03:01:16;100713.11;;;13.89;100.00
40171;BME280;37650;52.790;18.268;2023-06-14T03:04:37;100720.02;;;13.88;100.00
40171;BME280;37650;52.790;18.268;2023-06-14T03:08:03;100722.48;;;13.84;100.00
40171;BME280;37650;52.790;18.268;2023-06-14T03:11:24;100722.85;;;13.84;100.00
40171;BME280;37650;52.790;18.268;2023-06-14T03:14:46;100725.38;;;13.83;100.00
40171;BME280;37650;52.790;18.268;2023-06-14T03:18:08;100728.05;;;13.82;100.00
40171;BME280;37650;52.790;18.268;2023-06-14T03:21:33;100727.71;;;13.82;100.00
40171;BME280;37650;52.790;18.268;2023-06-14T03:24:57;100723.23;;;13.83;100.00
40171;BME280;37650;52.790;18.268;2023-06-14T03:28:20;100727.70;;;13.82;100.00
40171;BME280;37650;52.790;18.268;2023-06-14T03:31:59;100733.55;;;13.81;100.00
40171;BME280;37650;52.790;18.268;2023-06-14T03:35:22;100737.10;;;13.84;100.00
40171;BME280;37650;52.790;18.268;2023-06-14T03:38:44;100741.77;;;13.87;100.00
40171;BME280;37650;52.790;18.268;2023-06-14T03:42:06;100739.60;;;13.88;100.00
40171;BME280;37650;52.790;18.268;2023-06-14T03:45:28;100741.66;;;13.89;100.00
40171;BME280;37650;52.790;18.268;2023-06-14T03:48:49;100750.93;;;13.90;100.00
40171;BME280;37650;52.790;18.268;2023-06-14T03:52:11;100753.19;;;13.92;100.00
40171;BME280;37650;52.790;18.268;2023-06-14T03:55:33;100753.28;;;13.98;100.00
40171;BME280;37650;52.790;18.268;2023-06-14T03:58:55;100753.80;;;14.02;100.00
40171;BME280;37650;52.790;18.268;2023-06-14T04:02:18;100757.85;;;14.06;100.00
40171;BME280;37650;52.790;18.268;2023-06-14T04:05:39;100750.09;;;14.10;100.00
40171;BME280;37650;52.790;18.268;2023-06-14T04:09:04;100750.71;;;14.08;100.00
40171;BME280;37650;52.790;18.268;2023-06-14T04:12:25;100754.23;;;14.08;100.00
40171;BME280;37650;52.790;18.268;2023-06-14T04:15:47;100757.70;;;14.09;100.00
40171;BME280;37650;52.790;18.268;2023-06-14T04:19:17;100749.31;;;14.11;100.00
40171;BME280;37650;52.790;18.268;2023-06-14T04:22:38;100748.48;;;14.14;100.00
40171;BME280;37650;52.790;18.268;2023-06-14T04:26:00;100748.15;;;14.17;100.00
40171;BME280;37650;52.790;18.268;2023-06-14T04:29:22;100748.91;;;14.23;100.00
40171;BME280;37650;52.790;18.268;2023-06-14T04:32:51;100753.30;;;14.27;100.00
40171;BME280;37650;52.790;18.268;2023-06-14T04:36:16;100753.46;;;14.28;100.00
40171;BME280;37650;52.790;18.268;2023-06-14T04:39:41;100756.24;;;14.32;100.00
40171;BME280;37650;52.790;18.268;2023-06-14T04:43:03;100758.58;;;14.40;100.00
40171;BME280;37650;52.790;18.268;2023-06-14T04:46:26;100763.98;;;14.45;100.00
40171;BME280;37650;52.790;18.268;2023-06-14T04:49:50;100764.34;;;14.53;100.00
40171;BME280;37650;52.790;18.268;2023-06-14T04:53:16;100763.27;;;14.60;100.00
40171;BME280;37650;52.790;18.268;2023-06-14T04:56:37;100759.31;;;14.65;100.00
40171;BME280;37650;52.790;18.268;2023-06-14T04:59:58;100759.65;;;14.66;100.00
40171;BME280;37650;52.790;18.268;2023-06-14T05:03:23;100761.02;;;14.67;100.00
40171;BME280;37650;52.790;18.268;2023-06-14T05:06:45;100759.34;;;14.68;100.00
40171;BME280;37650;52.790;18.268;2023-06-14T05:10:07;100759.92;;;14.64;100.00
40171;BME280;37650;52.790;18.268;2023-06-14T05:13:29;100761.81;;;14.61;100.00
40171;BME280;37650;52.790;18.268;2023-06-14T05:16:52;100754.23;;;14.68;100.00
40171;BME280;37650;52.790;18.268;2023-06-14T05:20:14;100748.36;;;14.73;100.00
40171;BME280;37650;52.790;18.268;2023-06-14T05:23:37;100751.38;;;14.76;100.00
40171;BME280;37650;52.790;18.268;2023-06-14T05:26:58;100757.70;;;14.88;100.00
40171;BME280;37650;52.790;18.268;2023-06-14T05:30:20;100760.45;;;15.00;100.00
40171;BME280;37650;52.790;18.268;2023-06-14T05:33:41;100757.80;;;15.10;100.00
40171;BME280;37650;52.790;18.268;2023-06-14T05:37:03;100762.98;;;15.20;100.00
40171;BME280;37650;52.790;18.268;2023-06-14T05:40:25;100767.80;;;15.26;100.00
40171;BME280;37650;52.790;18.268;2023-06-14T05:43:46;100771.33;;;15.30;100.00
40171;BME280;37650;52.790;18.268;2023-06-14T05:47:07;100767.47;;;15.29;100.00
40171;BME280;37650;52.790;18.268;2023-06-14T05:50:28;100766.09;;;15.28;100.00
40171;BME280;37650;52.790;18.268;2023-06-14T05:53:50;100755.11;;;15.29;100.00
40171;BME280;37650;52.790;18.268;2023-06-14T05:57:11;100752.61;;;15.36;100.00
40171;BME280;37650;52.790;18.268;2023-06-14T06:00:32;100750.00;;;15.49;100.00
40171;BME280;37650;52.790;18.268;2023-06-14T06:03:54;100752.77;;;15.65;100.00
40171;BME280;37650;52.790;18.268;2023-06-14T06:07:15;100755.68;;;15.73;100.00
40171;BME280;37650;52.790;18.268;2023-06-14T06:10:36;100755.70;;;15.83;100.00
40171;BME280;37650;52.790;18.268;2023-06-14T06:13:57;100755.01;;;15.93;100.00
40171;BME280;37650;52.790;18.268;2023-06-14T06:17:19;100751.65;;;15.99;100.00
40171;BME280;37650;52.790;18.268;2023-06-14T06:20:40;100750.15;;;16.14;100.00
40171;BME280;37650;52.790;18.268;2023-06-14T06:24:02;100753.84;;;16.27;100.00
40171;BME280;37650;52.790;18.268;2023-06-14T06:27:26;100750.66;;;16.36;100.00
40171;BME280;37650;52.790;18.268;2023-06-14T06:30:46;100747.41;;;16.37;100.00
40171;BME280;37650;52.790;18.268;2023-06-14T06:34:08;100754.98;;;16.45;100.00
40171;BME280;37650;52.790;18.268;2023-06-14T06:37:30;100755.88;;;16.45;100.00
40171;BME280;37650;52.790;18.268;2023-06-14T06:40:51;100764.61;;;16.50;100.00
40171;BME280;37650;52.790;18.268;2023-06-14T06:44:12;100777.23;;;16.56;100.00
40171;BME280;37650;52.790;18.268;2023-06-14T06:47:34;100781.48;;;16.59;100.00
40171;BME280;37650;52.790;18.268;2023-06-14T06:50:55;100781.52;;;16.65;100.00
40171;BME280;37650;52.790;18.268;2023-06-14T06:54:16;100784.67;;;16.84;100.00
40171;BME280;37650;52.790;18.268;2023-06-14T06:57:37;100788.42;;;17.06;100.00
40171;BME280;37650;52.790;18.268;2023-06-14T07:00:59;100787.76;;;17.26;100.00
40171;BME280;37650;52.790;18.268;2023-06-14T07:04:20;100789.38;;;17.56;100.00
40171;BME280;37650;52.790;18.268;2023-06-14T07:07:41;100783.86;;;17.91;100.00
40171;BME280;37650;52.790;18.268;2023-06-14T07:11:03;100771.08;;;18.03;100.00
40171;BME280;37650;52.790;18.268;2023-06-14T07:14:24;100762.30;;;18.30;100.00
40171;BME280;37650;52.790;18.268;2023-06-14T07:17:45;100756.89;;;18.45;100.00
40171;BME280;37650;52.790;18.268;2023-06-14T07:21:07;100765.30;;;18.67;99.64
40171;BME280;37650;52.790;18.268;2023-06-14T07:24:28;100765.82;;;18.78;99.57
40171;BME280;37650;52.790;18.268;2023-06-14T07:27:49;100770.11;;;18.80;97.98
40171;BME280;37650;52.790;18.268;2023-06-14T07:31:10;100774.78;;;18.74;96.97
40171;BME280;37650;52.790;18.268;2023-06-14T07:34:33;100783.95;;;18.67;96.78
40171;BME280;37650;52.790;18.268;2023-06-14T07:37:55;100784.96;;;18.59;95.97
40171;BME280;37650;52.790;18.268;2023-06-14T07:41:16;100787.95;;;18.54;96.41
40171;BME280;37650;52.790;18.268;2023-06-14T07:44:37;100788.13;;;18.54;96.45
40171;BME280;37650;52.790;18.268;2023-06-14T07:47:57;100793.99;;;18.57;95.55
40171;BME280;37650;52.790;18.268;2023-06-14T07:51:18;100797.88;;;18.54;94.29
40171;BME280;37650;52.790;18.268;2023-06-14T07:54:39;100798.39;;;18.55;94.60
40171;BME280;37650;52.790;18.268;2023-06-14T07:58:05;100796.36;;;18.59;94.80
40171;BME280;37650;52.790;18.268;2023-06-14T08:01:27;100797.25;;;18.64;94.57
40171;BME280;37650;52.790;18.268;2023-06-14T08:04:48;100793.69;;;18.65;94.03
40171;BME280;37650;52.790;18.268;2023-06-14T08:08:10;100793.52;;;18.67;93.40
40171;BME280;37650;52.790;18.268;2023-06-14T08:11:31;100793.64;;;18.70;93.09
40171;BME280;37650;52.790;18.268;2023-06-14T08:14:52;100800.20;;;18.74;92.75
40171;BME280;37650;52.790;18.268;2023-06-14T08:18:14;100799.31;;;18.76;93.11
40171;BME280;37650;52.790;18.268;2023-06-14T08:21:35;100797.33;;;18.82;93.61
40171;BME280;37650;52.790;18.268;2023-06-14T08:24:57;100790.78;;;18.90;93.91
40171;BME280;37650;52.790;18.268;2023-06-14T08:28:18;100798.71;;;18.97;94.01
40171;BME280;37650;52.790;18.268;2023-06-14T08:31:39;100804.34;;;19.08;94.97
40171;BME280;37650;52.790;18.268;2023-06-14T08:35:00;100805.19;;;19.25;95.27
40171;BME280;37650;52.790;18.268;2023-06-14T08:38:22;100797.70;;;19.36;93.79
40171;BME280;37650;52.790;18.268;2023-06-14T08:41:47;100799.58;;;19.37;92.88
40171;BME280;37650;52.790;18.268;2023-06-14T08:45:11;100794.94;;;19.45;92.70
40171;BME280;37650;52.790;18.268;2023-06-14T08:48:32;100790.45;;;19.51;91.23
40171;BME280;37650;52.790;18.268;2023-06-14T08:51:57;100785.55;;;19.53;90.65
40171;BME280;37650;52.790;18.268;2023-06-14T08:55:19;100776.72;;;19.75;90.21
40171;BME280;37650;52.790;18.268;2023-06-14T08:58:42;100774.98;;;19.95;89.52
40171;BME280;37650;52.790;18.268;2023-06-14T09:02:06;100771.53;;;20.08;88.00
40171;BME280;37650;52.790;18.268;2023-06-14T09:05:27;100770.88;;;20.18;88.21
40171;BME280;37650;52.790;18.268;2023-06-14T09:08:49;100767.00;;;20.27;87.15
40171;BME280;37650;52.790;18.268;2023-06-14T09:12:10;100770.52;;;20.23;86.21
40171;BME280;37650;52.790;18.268;2023-06-14T09:15:34;100768.70;;;20.31;85.79
40171;BME280;37650;52.790;18.268;2023-06-14T09:19:25;100768.73;;;20.63;86.00
40171;BME280;37650;52.790;18.268;2023-06-14T09:22:47;100775.58;;;21.36;85.66
40171;BME280;37650;52.790;18.268;2023-06-14T09:26:10;100773.60;;;21.87;83.44
40171;BME280;37650;52.790;18.268;2023-06-14T09:29:31;100765.74;;;22.24;81.13
40171;BME280;37650;52.790;18.268;2023-06-14T09:32:52;100767.13;;;22.38;79.89
40171;BME280;37650;52.790;18.268;2023-06-14T09:36:22;100763.01;;;22.11;74.71
40171;BME280;37650;52.790;18.268;2023-06-14T09:39:50;100765.82;;;21.91;75.98
40171;BME280;37650;52.790;18.268;2023-06-14T09:43:12;100763.29;;;21.84;75.74
40171;BME280;37650;52.790;18.268;2023-06-14T09:46:35;100767.37;;;21.82;75.04
40171;BME280;37650;52.790;18.268;2023-06-14T09:49:57;100767.05;;;21.77;74.78
40171;BME280;37650;52.790;18.268;2023-06-14T09:53:21;100770.75;;;21.69;74.58
40171;BME280;37650;52.790;18.268;2023-06-14T09:56:47;100771.20;;;21.70;74.38
40171;BME280;37650;52.790;18.268;2023-06-14T10:00:08;100770.80;;;21.68;73.98
40171;BME280;37650;52.790;18.268;2023-06-14T10:03:33;100775.29;;;21.54;73.05
40171;BME280;37650;52.790;18.268;2023-06-14T10:06:55;100779.45;;;21.34;73.56
40171;BME280;37650;52.790;18.268;2023-06-14T10:10:16;100784.64;;;21.08;73.88
40171;BME280;37650;52.790;18.268;2023-06-14T10:13:38;100788.02;;;20.79;75.01
40171;BME280;37650;52.790;18.268;2023-06-14T10:17:10;100790.88;;;20.57;75.59
40171;BME280;37650;52.790;18.268;2023-06-14T10:24:18;100788.64;;;20.29;78.09
40171;BME280;37650;52.790;18.268;2023-06-14T10:27:44;100790.09;;;20.31;78.82
40171;BME280;37650;52.790;18.268;2023-06-14T10:31:09;100790.96;;;20.23;78.10
40171;BME280;37650;52.790;18.268;2023-06-14T10:34:32;100794.19;;;20.18;77.75
40171;BME280;37650;52.790;18.268;2023-06-14T10:37:53;100789.79;;;20.35;78.32
40171;BME280;37650;52.790;18.268;2023-06-14T10:41:16;100789.45;;;20.64;77.91
40171;BME280;37650;52.790;18.268;2023-06-14T10:44:40;100787.06;;;20.85;77.41
40171;BME280;37650;52.790;18.268;2023-06-14T10:48:01;100785.68;;;21.08;76.70
40171;BME280;37650;52.790;18.268;2023-06-14T10:51:23;100786.55;;;21.23;74.54
40171;BME280;37650;52.790;18.268;2023-06-14T10:58:26;100783.67;;;21.82;73.02
40171;BME280;37650;52.790;18.268;2023-06-14T11:05:14;100781.05;;;22.31;72.37
40171;BME280;37650;52.790;18.268;2023-06-14T11:12:23;100775.65;;;23.34;72.99
40171;BME280;37650;52.790;18.268;2023-06-14T11:15:47;100770.67;;;24.13;70.27
40171;BME280;37650;52.790;18.268;2023-06-14T11:19:08;100769.41;;;24.57;67.51
40171;BME280;37650;52.790;18.268;2023-06-14T11:22:39;100765.45;;;25.01;65.55
40171;BME280;37650;52.790;18.268;2023-06-14T11:26:00;100767.20;;;25.25;64.86
40171;BME280;37650;52.790;18.268;2023-06-14T11:29:21;100766.67;;;25.56;64.01
40171;BME280;37650;52.790;18.268;2023-06-14T11:32:45;100762.73;;;25.67;62.96
40171;BME280;37650;52.790;18.268;2023-06-14T11:36:07;100764.79;;;25.37;60.63
40171;BME280;37650;52.790;18.268;2023-06-14T11:39:29;100764.52;;;24.60;61.33
40171;BME280;37650;52.790;18.268;2023-06-14T11:42:58;100770.89;;;23.79;62.47
40171;BME280;37650;52.790;18.268;2023-06-14T11:46:20;100769.13;;;23.05;64.41
40171;BME280;37650;52.790;18.268;2023-06-14T11:50:04;100770.00;;;22.53;64.46
40171;BME280;37650;52.790;18.268;2023-06-14T11:53:26;100768.84;;;22.12;64.70
40171;BME280;37650;52.790;18.268;2023-06-14T11:56:48;100766.39;;;21.72;64.12
40171;BME280;37650;52.790;18.268;2023-06-14T12:00:11;100765.84;;;21.52;64.72
40171;BME280;37650;52.790;18.268;2023-06-14T12:03:33;100760.00;;;21.34;64.50
40171;BME280;37650;52.790;18.268;2023-06-14T12:06:54;100759.27;;;21.18;64.91
40171;BME280;37650;52.790;18.268;2023-06-14T12:10:16;100752.29;;;21.28;65.44
40171;BME280;37650;52.790;18.268;2023-06-14T12:13:39;100747.49;;;21.32;63.70
40171;BME280;37650;52.790;18.268;2023-06-14T12:17:07;100744.19;;;21.15;63.13
40171;BME280;37650;52.790;18.268;2023-06-14T12:20:30;100746.60;;;21.37;63.61
40171;BME280;37650;52.790;18.268;2023-06-14T12:23:52;100741.32;;;21.50;62.21
40171;BME280;37650;52.790;18.268;2023-06-14T12:27:13;100740.20;;;21.58;62.13
40171;BME280;37650;52.790;18.268;2023-06-14T12:30:37;100736.80;;;21.69;61.21
40171;BME280;37650;52.790;18.268;2023-06-14T12:33:58;100739.17;;;21.80;61.02
40171;BME280;37650;52.790;18.268;2023-06-14T12:37:19;100734.78;;;21.88;60.64
40171;BME280;37650;52.790;18.268;2023-06-14T12:40:41;100733.80;;;21.92;60.18
40171;BME280;37650;52.790;18.268;2023-06-14T12:44:03;100731.73;;;21.93;59.87
40171;BME280;37650;52.790;18.268;2023-06-14T12:47:26;100728.46;;;21.98;60.10
40171;BME280;37650;52.790;18.268;2023-06-14T12:50:48;100730.39;;;21.87;59.25
40171;BME280;37650;52.790;18.268;2023-06-14T12:54:09;100738.00;;;21.56;59.61
40171;BME280;37650;52.790;18.268;2023-06-14T12:57:31;100734.35;;;21.25;59.89
40171;BME280;37650;52.790;18.268;2023-06-14T13:00:52;100734.81;;;20.99;60.59
40171;BME280;37650;52.790;18.268;2023-06-14T13:04:13;100733.45;;;20.92;61.35
40171;BME280;37650;52.790;18.268;2023-06-14T13:07:35;100731.71;;;20.86;61.24
40171;BME280;37650;52.790;18.268;2023-06-14T13:10:57;100730.21;;;20.75;60.81
40171;BME280;37650;52.790;18.268;2023-06-14T13:14:18;100724.73;;;20.75;61.46
40171;BME280;37650;52.790;18.268;2023-06-14T13:17:39;100723.83;;;20.72;60.60
40171;BME280;37650;52.790;18.268;2023-06-14T13:21:01;100722.57;;;20.72;61.53
40171;BME280;37650;52.790;18.268;2023-06-14T13:24:22;100723.73;;;20.81;61.97
40171;BME280;37650;52.790;18.268;2023-06-14T13:27:43;100717.15;;;20.76;61.69
40171;BME280;37650;52.790;18.268;2023-06-14T13:31:04;100713.17;;;20.65;61.93
40171;BME280;37650;52.790;18.268;2023-06-14T13:34:27;100711.62;;;20.51;61.45
40171;BME280;37650;52.790;18.268;2023-06-14T13:37:49;100711.40;;;20.30;61.65
40171;BME280;37650;52.790;18.268;2023-06-14T13:41:10;100705.03;;;20.22;62.26
40171;BME280;37650;52.790;18.268;2023-06-14T13:44:31;100703.98;;;20.12;62.45
40171;BME280;37650;52.790;18.268;2023-06-14T13:47:53;100705.05;;;20.04;63.04
40171;BME280;37650;52.790;18.268;2023-06-14T13:51:15;100703.11;;;19.99;63.20
40171;BME280;37650;52.790;18.268;2023-06-14T13:54:39;100699.13;;;19.93;63.80
40171;BME280;37650;52.790;18.268;2023-06-14T13:58:01;100702.41;;;19.97;63.83
40171;BME280;37650;52.790;18.268;2023-06-14T14:01:22;100698.63;;;19.92;64.02
40171;BME280;37650;52.790;18.268;2023-06-14T14:04:45;100695.21;;;19.90;64.52
40171;BME280;37650;52.790;18.268;2023-06-14T14:08:12;100693.55;;;19.89;64.33
40171;BME280;37650;52.790;18.268;2023-06-14T14:11:33;100693.21;;;19.81;64.29
40171;BME280;37650;52.790;18.268;2023-06-14T14:14:55;100696.23;;;19.61;64.26
40171;BME280;37650;52.790;18.268;2023-06-14T14:18:16;100700.52;;;19.50;64.95
40171;BME280;37650;52.790;18.268;2023-06-14T14:21:38;100697.64;;;19.48;65.13
40171;BME280;37650;52.790;18.268;2023-06-14T14:24:59;100700.62;;;19.51;64.99
40171;BME280;37650;52.790;18.268;2023-06-14T14:28:21;100701.91;;;19.58;65.60
40171;BME280;37650;52.790;18.268;2023-06-14T14:31:42;100701.27;;;19.65;65.14
40171;BME280;37650;52.790;18.268;2023-06-14T14:35:04;100699.39;;;19.68;65.40
40171;BME280;37650;52.790;18.268;2023-06-14T14:38:26;100699.34;;;19.71;65.30
40171;BME280;37650;52.790;18.268;2023-06-14T14:41:47;100697.83;;;19.78;65.32
40171;BME280;37650;52.790;18.268;2023-06-14T14:45:09;100697.66;;;19.70;65.24
40171;BME280;37650;52.790;18.268;2023-06-14T14:48:31;100700.02;;;19.67;65.62
40171;BME280;37650;52.790;18.268;2023-06-14T14:51:55;100696.48;;;19.74;66.44
40171;BME280;37650;52.790;18.268;2023-06-14T14:55:17;100698.80;;;19.74;65.90
40171;BME280;37650;52.790;18.268;2023-06-14T14:58:38;100698.47;;;19.79;66.24
40171;BME280;37650;52.790;18.268;2023-06-14T15:01:59;100696.48;;;19.82;66.08
40171;BME280;37650;52.790;18.268;2023-06-14T15:05:21;100695.59;;;19.88;66.44
40171;BME280;37650;52.790;18.268;2023-06-14T15:08:42;100697.95;;;20.02;66.78
40171;BME280;37650;52.790;18.268;2023-06-14T15:12:06;100699.47;;;20.08;66.18
40171;BME280;37650;52.790;18.268;2023-06-14T15:15:27;100692.04;;;20.09;66.17
40171;BME280;37650;52.790;18.268;2023-06-14T15:18:48;100697.05;;;20.11;66.46
40171;BME280;37650;52.790;18.268;2023-06-14T15:22:10;100699.67;;;20.10;66.24
40171;BME280;37650;52.790;18.268;2023-06-14T15:25:31;100703.47;;;20.01;64.29
40171;BME280;37650;52.790;18.268;2023-06-14T15:28:54;100707.71;;;19.95;63.11
40171;BME280;37650;52.790;18.268;2023-06-14T15:32:15;100706.75;;;19.91;61.76
40171;BME280;37650;52.790;18.268;2023-06-14T15:35:36;100705.15;;;19.81;61.28
40171;BME280;37650;52.790;18.268;2023-06-14T15:38:57;100702.97;;;19.76;61.29
40171;BME280;37650;52.790;18.268;2023-06-14T15:42:18;100706.89;;;19.71;61.51
40171;BME280;37650;52.790;18.268;2023-06-14T15:45:39;100707.61;;;19.65;61.81
40171;BME280;37650;52.790;18.268;2023-06-14T15:49:01;100703.63;;;19.54;62.66
40171;BME280;37650;52.790;18.268;2023-06-14T15:52:23;100709.08;;;19.34;63.24
40171;BME280;37650;52.790;18.268;2023-06-14T15:55:45;100708.22;;;19.20;64.16
40171;BME280;37650;52.790;18.268;2023-06-14T15:59:06;100707.32;;;19.08;64.69
40171;BME280;37650;52.790;18.268;2023-06-14T16:02:28;100705.55;;;18.94;65.91
40171;BME280;37650;52.790;18.268;2023-06-14T16:05:49;100708.96;;;18.85;65.84
40171;BME280;37650;52.790;18.268;2023-06-14T16:09:10;100714.54;;;18.71;66.23
40171;BME280;37650;52.790;18.268;2023-06-14T16:12:31;100712.66;;;18.65;67.05
40171;BME280;37650;52.790;18.268;2023-06-14T16:15:53;100717.45;;;18.62;67.60
40171;BME280;37650;52.790;18.268;2023-06-14T16:19:14;100714.09;;;18.62;67.72
40171;BME280;37650;52.790;18.268;2023-06-14T16:22:36;100717.20;;;18.60;68.05
40171;BME280;37650;52.790;18.268;2023-06-14T16:25:57;100717.54;;;18.55;68.10
40171;BME280;37650;52.790;18.268;2023-06-14T16:29:18;100720.95;;;18.51;68.60
40171;BME280;37650;52.790;18.268;2023-06-14T16:32:39;100720.90;;;18.52;68.92
40171;BME280;37650;52.790;18.268;2023-06-14T16:36:00;100721.15;;;18.51;69.30
40171;BME280;37650;52.790;18.268;2023-06-14T16:39:21;100721.98;;;18.52;69.52
40171;BME280;37650;52.790;18.268;2023-06-14T16:42:43;100716.93;;;18.50;69.80
40171;BME280;37650;52.790;18.268;2023-06-14T16:46:04;100718.86;;;18.45;69.28
40171;BME280;37650;52.790;18.268;2023-06-14T16:49:27;100718.90;;;18.39;68.75
40171;BME280;37650;52.790;18.268;2023-06-14T16:52:49;100717.45;;;18.34;69.31
40171;BME280;37650;52.790;18.268;2023-06-14T16:56:10;100715.95;;;18.24;69.34
40171;BME280;37650;52.790;18.268;2023-06-14T16:59:32;100716.70;;;18.21;69.87
40171;BME280;37650;52.790;18.268;2023-06-14T17:02:54;100723.33;;;18.17;70.53
40171;BME280;37650;52.790;18.268;2023-06-14T17:06:16;100726.55;;;18.14;71.11
40171;BME280;37650;52.790;18.268;2023-06-14T17:09:37;100724.86;;;18.10;71.50
40171;BME280;37650;52.790;18.268;2023-06-14T17:12:58;100729.25;;;17.99;72.43
40171;BME280;37650;52.790;18.268;2023-06-14T17:16:21;100732.16;;;17.92;73.87
40171;BME280;37650;52.790;18.268;2023-06-14T17:19:42;100730.48;;;17.82;74.81
40171;BME280;37650;52.790;18.268;2023-06-14T17:23:03;100735.73;;;17.75;76.11
40171;BME280;37650;52.790;18.268;2023-06-14T17:26:25;100734.77;;;17.65;77.36
40171;BME280;37650;52.790;18.268;2023-06-14T17:29:46;100739.25;;;17.52;78.29
40171;BME280;37650;52.790;18.268;2023-06-14T17:33:08;100740.81;;;17.41;80.19
40171;BME280;37650;52.790;18.268;2023-06-14T17:36:30;100746.79;;;17.38;81.55